sensor_id;sensor_type;location;lat;lon;timestamp;P1;durP1;ratioP1;P2;durP2;ratioP2
3379;SDS011;1703;51.964;7.642;2023-06-05T00:02:00;5.47;;;2.80;;
3379;SDS011;1703;51.964;7.642;2023-06-05T00:04:26;5.13;;;2.63;;
3379;SDS011;1703;51.964;7.642;2023-06-05T00:06:54;4.43;;;2.60;;
3379;SDS011;1703;51.964;7.642;2023-06-05T00:09:21;5.93;;;2.90;;
3379;SDS011;1703;51.964;7.642;2023-06-05T00:11:48;4.97;;;2.50;;
3379;SDS011;1703;51.964;7.642;2023-06-05T00:14:16;3.40;;;2.30;;
3379;SDS011;1703;51.964;7.642;2023-06-05T00:16:44;4.10;;;2.97;;
3379;SDS011;1703;51.964;7.642;2023-06-05T00:19:11;3.40;;;3.10;;
3379;SDS011;1703;51.964;7.642;2023-06-05T00:21:38;5.23;;;2.90;;
3379;SDS011;1703;51.964;7.642;2023-06-05T00:24:05;3.43;;;2.77;;
3379;SDS011;1703;51.964;7.642;2023-06-05T00:26:32;6.50;;;3.00;;
3379;SDS011;1703;51.964;7.642;2023-06-05T00:28:58;3.50;;;2.90;;
3379;SDS011;1703;51.964;7.642;2023-06-05T00:31:25;4.00;;;2.53;;
3379;SDS011;1703;51.964;7.642;2023-06-05T00:33:54;4.50;;;2.50;;
3379;SDS011;1703;51.964;7.642;2023-06-05T00:36:21;4.73;;;3.03;;
3379;SDS011;1703;51.964;7.642;2023-06-05T00:38:48;8.40;;;4.03;;
3379;SDS011;1703;51.964;7.642;2023-06-05T00:41:15;4.80;;;3.00;;
3379;SDS011;1703;51.964;7.642;2023-06-05T00:43:43;7.03;;;3.00;;
3379;SDS011;1703;51.964;7.642;2023-06-05T00:46:10;7.57;;;3.10;;
3379;SDS011;1703;51.964;7.642;2023-06-05T00:48:37;6.30;;;3.80;;
3379;SDS011;1703;51.964;7.642;2023-06-05T00:51:07;7.27;;;2.70;;
3379;SDS011;1703;51.964;7.642;2023-06-05T00:53:35;5.07;;;3.13;;
3379;SDS011;1703;51.964;7.642;2023-06-05T00:56:04;4.93;;;2.90;;
3379;SDS011;1703;51.964;7.642;2023-06-05T00:58:31;8.83;;;3.53;;
3379;SDS011;1703;51.964;7.642;2023-06-05T01:00:58;5.90;;;3.80;;
3379;SDS011;1703;51.964;7.642;2023-06-05T01:03:29;10.20;;;6.70;;
3379;SDS011;1703;51.964;7.642;2023-06-05T01:05:58;6.10;;;4.10;;
3379;SDS011;1703;51.964;7.642;2023-06-05T01:08:30;4.87;;;4.17;;
3379;SDS011;1703;51.964;7.642;2023-06-05T01:11:03;3.20;;;2.80;;
3379;SDS011;1703;51.964;7.642;2023-06-05T01:13:36;4.30;;;3.80;;
3379;SDS011;1703;51.964;7.642;2023-06-05T01:16:10;7.33;;;3.87;;
3379;SDS011;1703;51.964;7.642;2023-06-05T01:18:37;4.40;;;3.97;;
3379;SDS011;1703;51.964;7.642;2023-06-05T01:21:10;7.47;;;3.87;;
3379;SDS011;1703;51.964;7.642;2023-06-05T01:23:41;13.40;;;4.20;;
3379;SDS011;1703;51.964;7.642;2023-06-05T01:26:10;7.70;;;4.20;;
3379;SDS011;1703;51.964;7.642;2023-06-05T01:28:45;8.27;;;4.13;;
3379;SDS011;1703;51.964;7.642;2023-06-05T01:31:14;8.20;;;5.03;;
3379;SDS011;1703;51.964;7.642;2023-06-05T01:33:46;16.27;;;9.87;;
3379;SDS011;1703;51.964;7.642;2023-06-05T01:36:19;16.90;;;12.77;;
3379;SDS011;1703;51.964;7.642;2023-06-05T01:38:48;31.07;;;20.70;;
3379;SDS011;1703;51.964;7.642;2023-06-05T01:41:17;26.00;;;18.10;;
3379;SDS011;1703;51.964;7.642;2023-06-05T01:43:45;21.13;;;15.40;;
3379;SDS011;1703;51.964;7.642;2023-06-05T01:46:14;9.53;;;8.33;;
3379;SDS011;1703;51.964;7.642;2023-06-05T01:48:45;7.30;;;6.60;;
3379;SDS011;1703;51.964;7.642;2023-06-05T01:51:12;8.90;;;6.30;;
3379;SDS011;1703;51.964;7.642;2023-06-05T01:53:39;9.90;;;5.53;;
3379;SDS011;1703;51.964;7.642;2023-06-05T01:56:07;6.27;;;4.90;;
3379;SDS011;1703;51.964;7.642;2023-06-05T01:58:34;8.77;;;5.30;;
3379;SDS011;1703;51.964;7.642;2023-06-05T02:01:02;10.00;;;5.10;;
3379;SDS011;1703;51.964;7.642;2023-06-05T02:03:30;5.50;;;5.00;;
3379;SDS011;1703;51.964;7.642;2023-06-05T02:05:57;8.30;;;4.60;;
3379;SDS011;1703;51.964;7.642;2023-06-05T02:08:24;6.30;;;5.60;;
3379;SDS011;1703;51.964;7.642;2023-06-05T02:10:53;9.93;;;5.80;;
3379;SDS011;1703;51.964;7.642;2023-06-05T02:13:21;6.50;;;5.50;;
3379;SDS011;1703;51.964;7.642;2023-06-05T02:15:50;7.50;;;5.20;;
3379;SDS011;1703;51.964;7.642;2023-06-05T02:18:21;12.17;;;5.60;;
3379;SDS011;1703;51.964;7.642;2023-06-05T02:20:52;5.60;;;4.93;;
3379;SDS011;1703;51.964;7.642;2023-06-05T02:23:20;9.40;;;5.20;;
3379;SDS011;1703;51.964;7.642;2023-06-05T02:25:46;8.10;;;5.70;;
3379;SDS011;1703;51.964;7.642;2023-06-05T02:28:14;7.00;;;5.60;;
3379;SDS011;1703;51.964;7.642;2023-06-05T02:30:42;7.27;;;5.60;;
3379;SDS011;1703;51.964;7.642;2023-06-05T02:33:10;10.17;;;7.03;;
3379;SDS011;1703;51.964;7.642;2023-06-05T02:35:37;6.90;;;5.80;;
3379;SDS011;1703;51.964;7.642;2023-06-05T02:38:05;12.60;;;6.90;;
3379;SDS011;1703;51.964;7.642;2023-06-05T02:40:32;11.60;;;6.43;;
3379;SDS011;1703;51.964;7.642;2023-06-05T02:42:59;7.97;;;6.57;;
3379;SDS011;1703;51.964;7.642;2023-06-05T02:45:26;6.97;;;5.40;;
3379;SDS011;1703;51.964;7.642;2023-06-05T02:47:55;8.03;;;5.70;;
3379;SDS011;1703;51.964;7.642;2023-06-05T02:50:22;17.33;;;6.80;;
3379;SDS011;1703;51.964;7.642;2023-06-05T02:52:51;10.00;;;5.17;;
3379;SDS011;1703;51.964;7.642;2023-06-05T02:55:24;8.30;;;6.27;;
3379;SDS011;1703;51.964;7.642;2023-06-05T02:57:56;18.70;;;7.13;;
3379;SDS011;1703;51.964;7.642;2023-06-05T03:00:32;7.37;;;6.20;;
3379;SDS011;1703;51.964;7.642;2023-06-05T03:03:00;10.20;;;7.20;;
3379;SDS011;1703;51.964;7.642;2023-06-05T03:05:31;8.47;;;6.50;;
3379;SDS011;1703;51.964;7.642;2023-06-05T03:08:04;8.83;;;6.10;;
3379;SDS011;1703;51.964;7.642;2023-06-05T03:10:32;8.53;;;6.30;;
3379;SDS011;1703;51.964;7.642;2023-06-05T03:12:59;9.83;;;6.50;;
3379;SDS011;1703;51.964;7.642;2023-06-05T03:15:29;8.77;;;6.30;;
3379;SDS011;1703;51.964;7.642;2023-06-05T03:17:56;9.30;;;6.47;;
3379;SDS011;1703;51.964;7.642;2023-06-05T03:20:26;11.40;;;6.50;;
3379;SDS011;1703;51.964;7.642;2023-06-05T03:22:53;9.17;;;6.60;;
3379;SDS011;1703;51.964;7.642;2023-06-05T03:25:22;9.67;;;6.60;;
3379;SDS011;1703;51.964;7.642;2023-06-05T03:27:53;9.87;;;6.63;;
3379;SDS011;1703;51.964;7.642;2023-06-05T03:30:22;8.70;;;6.13;;
3379;SDS011;1703;51.964;7.642;2023-06-05T03:32:52;7.90;;;6.20;;
3379;SDS011;1703;51.964;7.642;2023-06-05T03:35:20;7.60;;;6.10;;
3379;SDS011;1703;51.964;7.642;2023-06-05T03:37:48;7.83;;;6.37;;
3379;SDS011;1703;51.964;7.642;2023-06-05T03:40:15;9.07;;;7.07;;
3379;SDS011;1703;51.964;7.642;2023-06-05T03:42:42;9.83;;;6.40;;
3379;SDS011;1703;51.964;7.642;2023-06-05T03:45:09;8.20;;;6.33;;
3379;SDS011;1703;51.964;7.642;2023-06-05T03:47:38;8.30;;;6.60;;
3379;SDS011;1703;51.964;7.642;2023-06-05T03:50:07;8.50;;;6.80;;
3379;SDS011;1703;51.964;7.642;2023-06-05T03:52:39;9.30;;;7.23;;
3379;SDS011;1703;51.964;7.642;2023-06-05T03:55:08;10.70;;;7.03;;
3379;SDS011;1703;51.964;7.642;2023-06-05T03:57:36;18.60;;;6.20;;
3379;SDS011;1703;51.964;7.642;2023-06-05T04:00:05;11.60;;;7.20;;
3379;SDS011;1703;51.964;7.642;2023-06-05T04:02:38;11.00;;;6.97;;
3379;SDS011;1703;51.964;7.642;2023-06-05T04:05:06;11.13;;;6.97;;
3379;SDS011;1703;51.964;7.642;2023-06-05T04:07:37;11.23;;;7.13;;
3379;SDS011;1703;51.964;7.642;2023-06-05T04:10:05;12.50;;;6.00;;
3379;SDS011;1703;51.964;7.642;2023-06-05T04:12:34;13.23;;;7.10;;
3379;SDS011;1703;51.964;7.642;2023-06-05T04:15:01;13.33;;;8.40;;
3379;SDS011;1703;51.964;7.642;2023-06-05T04:17:28;7.70;;;6.63;;
3379;SDS011;1703;51.964;7.642;2023-06-05T04:19:55;8.03;;;6.50;;
3379;SDS011;1703;51.964;7.642;2023-06-05T04:22:23;11.73;;;7.53;;
3379;SDS011;1703;51.964;7.642;2023-06-05T04:24:50;8.37;;;7.13;;
3379;SDS011;1703;51.964;7.642;2023-06-05T04:27:18;15.57;;;7.57;;
3379;SDS011;1703;51.964;7.642;2023-06-05T04:29:46;12.50;;;7.00;;
3379;SDS011;1703;51.964;7.642;2023-06-05T04:32:14;13.43;;;6.90;;
3379;SDS011;1703;51.964;7.642;2023-06-05T04:34:41;10.17;;;8.10;;
3379;SDS011;1703;51.964;7.642;2023-06-05T04:37:08;9.90;;;6.90;;
3379;SDS011;1703;51.964;7.642;2023-06-05T04:39:36;12.03;;;7.63;;
3379;SDS011;1703;51.964;7.642;2023-06-05T04:42:04;9.03;;;7.57;;
3379;SDS011;1703;51.964;7.642;2023-06-05T04:44:33;16.40;;;7.07;;
3379;SDS011;1703;51.964;7.642;2023-06-05T04:47:03;13.50;;;8.03;;
3379;SDS011;1703;51.964;7.642;2023-06-05T04:49:32;14.10;;;9.03;;
3379;SDS011;1703;51.964;7.642;2023-06-05T04:51:59;10.50;;;8.00;;
3379;SDS011;1703;51.964;7.642;2023-06-05T04:54:26;10.53;;;7.60;;
3379;SDS011;1703;51.964;7.642;2023-06-05T04:56:53;12.93;;;7.50;;
3379;SDS011;1703;51.964;7.642;2023-06-05T04:59:21;10.60;;;7.13;;
3379;SDS011;1703;51.964;7.642;2023-06-05T05:01:47;12.73;;;9.00;;
3379;SDS011;1703;51.964;7.642;2023-06-05T05:04:16;10.57;;;8.47;;
3379;SDS011;1703;51.964;7.642;2023-06-05T05:06:43;14.40;;;8.80;;
3379;SDS011;1703;51.964;7.642;2023-06-05T05:09:13;12.30;;;9.47;;
3379;SDS011;1703;51.964;7.642;2023-06-05T05:11:40;14.50;;;8.27;;
3379;SDS011;1703;51.964;7.642;2023-06-05T05:14:06;13.20;;;8.37;;
3379;SDS011;1703;51.964;7.642;2023-06-05T05:16:33;12.17;;;8.30;;
3379;SDS011;1703;51.964;7.642;2023-06-05T05:19:00;14.07;;;8.90;;
3379;SDS011;1703;51.964;7.642;2023-06-05T05:21:29;8.77;;;7.43;;
3379;SDS011;1703;51.964;7.642;2023-06-05T05:23:56;19.00;;;10.17;;
3379;SDS011;1703;51.964;7.642;2023-06-05T05:26:25;11.57;;;7.97;;
3379;SDS011;1703;51.964;7.642;2023-06-05T05:28:52;12.80;;;8.50;;
3379;SDS011;1703;51.964;7.642;2023-06-05T05:31:20;20.10;;;8.90;;
3379;SDS011;1703;51.964;7.642;2023-06-05T05:33:48;13.13;;;9.80;;
3379;SDS011;1703;51.964;7.642;2023-06-05T05:36:15;13.10;;;7.83;;
3379;SDS011;1703;51.964;7.642;2023-06-05T05:38:44;9.10;;;7.53;;
3379;SDS011;1703;51.964;7.642;2023-06-05T05:41:11;11.43;;;8.10;;
3379;SDS011;1703;51.964;7.642;2023-06-05T05:43:38;18.00;;;9.13;;
3379;SDS011;1703;51.964;7.642;2023-06-05T05:46:05;13.10;;;8.57;;
3379;SDS011;1703;51.964;7.642;2023-06-05T05:48:34;16.73;;;8.23;;
3379;SDS011;1703;51.964;7.642;2023-06-05T05:51:01;11.93;;;8.80;;
3379;SDS011;1703;51.964;7.642;2023-06-05T05:53:28;12.20;;;8.50;;
3379;SDS011;1703;51.964;7.642;2023-06-05T05:55:56;9.73;;;7.93;;
3379;SDS011;1703;51.964;7.642;2023-06-05T05:58:23;10.53;;;8.23;;
3379;SDS011;1703;51.964;7.642;2023-06-05T06:00:50;9.83;;;8.10;;
3379;SDS011;1703;51.964;7.642;2023-06-05T06:03:18;10.17;;;8.03;;
3379;SDS011;1703;51.964;7.642;2023-06-05T06:05:46;13.60;;;8.33;;
3379;SDS011;1703;51.964;7.642;2023-06-05T06:08:13;16.90;;;8.13;;
3379;SDS011;1703;51.964;7.642;2023-06-05T06:10:40;16.97;;;8.77;;
3379;SDS011;1703;51.964;7.642;2023-06-05T06:13:09;11.33;;;8.10;;
3379;SDS011;1703;51.964;7.642;2023-06-05T06:15:35;16.30;;;8.73;;
3379;SDS011;1703;51.964;7.642;2023-06-05T06:18:04;15.57;;;8.70;;
3379;SDS011;1703;51.964;7.642;2023-06-05T06:20:30;15.43;;;9.80;;
3379;SDS011;1703;51.964;7.642;2023-06-05T06:22:58;11.57;;;8.07;;
3379;SDS011;1703;51.964;7.642;2023-06-05T06:25:25;15.10;;;9.53;;
3379;SDS011;1703;51.964;7.642;2023-06-05T06:27:56;12.93;;;8.50;;
3379;SDS011;1703;51.964;7.642;2023-06-05T06:30:25;12.33;;;8.77;;
3379;SDS011;1703;51.964;7.642;2023-06-05T06:32:52;13.17;;;9.17;;
3379;SDS011;1703;51.964;7.642;2023-06-05T06:35:22;17.50;;;9.40;;
3379;SDS011;1703;51.964;7.642;2023-06-05T06:37:52;17.93;;;8.20;;
3379;SDS011;1703;51.964;7.642;2023-06-05T06:40:19;17.70;;;8.23;;
3379;SDS011;1703;51.964;7.642;2023-06-05T06:42:46;18.73;;;9.20;;
3379;SDS011;1703;51.964;7.642;2023-06-05T06:45:29;11.90;;;7.33;;
3379;SDS011;1703;51.964;7.642;2023-06-05T06:47:56;18.03;;;7.27;;
3379;SDS011;1703;51.964;7.642;2023-06-05T06:50:23;8.63;;;6.87;;
3379;SDS011;1703;51.964;7.642;2023-06-05T06:52:50;12.10;;;7.80;;
3379;SDS011;1703;51.964;7.642;2023-06-05T06:55:16;15.63;;;8.47;;
3379;SDS011;1703;51.964;7.642;2023-06-05T06:57:43;11.73;;;8.30;;
3379;SDS011;1703;51.964;7.642;2023-06-05T07:00:10;17.60;;;7.67;;
3379;SDS011;1703;51.964;7.642;2023-06-05T07:02:39;11.93;;;6.90;;
3379;SDS011;1703;51.964;7.642;2023-06-05T07:05:07;10.70;;;8.40;;
3379;SDS011;1703;51.964;7.642;2023-06-05T07:07:34;15.67;;;7.90;;
3379;SDS011;1703;51.964;7.642;2023-06-05T07:10:01;22.60;;;8.87;;
3379;SDS011;1703;51.964;7.642;2023-06-05T07:12:28;15.80;;;7.63;;
3379;SDS011;1703;51.964;7.642;2023-06-05T07:14:54;14.53;;;8.30;;
3379;SDS011;1703;51.964;7.642;2023-06-05T07:17:21;8.13;;;6.93;;
3379;SDS011;1703;51.964;7.642;2023-06-05T07:19:49;9.23;;;8.10;;
3379;SDS011;1703;51.964;7.642;2023-06-05T07:22:16;10.10;;;7.67;;
3379;SDS011;1703;51.964;7.642;2023-06-05T07:24:43;9.13;;;6.63;;
3379;SDS011;1703;51.964;7.642;2023-06-05T07:27:10;9.97;;;6.77;;
3379;SDS011;1703;51.964;7.642;2023-06-05T07:29:38;10.33;;;6.43;;
3379;SDS011;1703;51.964;7.642;2023-06-05T07:32:05;11.03;;;7.50;;
3379;SDS011;1703;51.964;7.642;2023-06-05T07:34:32;11.00;;;7.40;;
3379;SDS011;1703;51.964;7.642;2023-06-05T07:37:00;10.13;;;7.27;;
3379;SDS011;1703;51.964;7.642;2023-06-05T07:39:28;7.57;;;6.30;;
3379;SDS011;1703;51.964;7.642;2023-06-05T07:41:54;11.93;;;7.60;;
3379;SDS011;1703;51.964;7.642;2023-06-05T07:44:21;11.13;;;6.90;;
3379;SDS011;1703;51.964;7.642;2023-06-05T07:46:48;14.63;;;7.27;;
3379;SDS011;1703;51.964;7.642;2023-06-05T07:49:16;10.47;;;7.00;;
3379;SDS011;1703;51.964;7.642;2023-06-05T07:51:43;11.00;;;7.27;;
3379;SDS011;1703;51.964;7.642;2023-06-05T07:54:14;11.07;;;7.43;;
3379;SDS011;1703;51.964;7.642;2023-06-05T07:56:42;11.00;;;6.63;;
3379;SDS011;1703;51.964;7.642;2023-06-05T07:59:09;11.90;;;5.67;;
3379;SDS011;1703;51.964;7.642;2023-06-05T08:01:39;13.30;;;6.97;;
3379;SDS011;1703;51.964;7.642;2023-06-05T08:04:06;9.97;;;6.77;;
3379;SDS011;1703;51.964;7.642;2023-06-05T08:06:35;9.97;;;6.50;;
3379;SDS011;1703;51.964;7.642;2023-06-05T08:09:03;12.97;;;7.33;;
3379;SDS011;1703;51.964;7.642;2023-06-05T08:11:32;7.20;;;6.40;;
3379;SDS011;1703;51.964;7.642;2023-06-05T08:13:59;8.20;;;6.17;;
3379;SDS011;1703;51.964;7.642;2023-06-05T08:16:26;6.83;;;6.13;;
3379;SDS011;1703;51.964;7.642;2023-06-05T08:18:53;14.53;;;7.30;;
3379;SDS011;1703;51.964;7.642;2023-06-05T08:21:20;7.40;;;6.63;;
3379;SDS011;1703;51.964;7.642;2023-06-05T08:23:47;9.70;;;6.77;;
3379;SDS011;1703;51.964;7.642;2023-06-05T08:26:13;5.40;;;4.90;;
3379;SDS011;1703;51.964;7.642;2023-06-05T08:28:41;25.07;;;6.40;;
3379;SDS011;1703;51.964;7.642;2023-06-05T08:31:08;9.67;;;6.13;;
3379;SDS011;1703;51.964;7.642;2023-06-05T08:33:35;10.50;;;5.80;;
3379;SDS011;1703;51.964;7.642;2023-06-05T08:36:03;10.50;;;5.87;;
3379;SDS011;1703;51.964;7.642;2023-06-05T08:38:32;6.67;;;5.50;;
3379;SDS011;1703;51.964;7.642;2023-06-05T08:41:00;13.93;;;6.97;;
3379;SDS011;1703;51.964;7.642;2023-06-05T08:43:28;7.73;;;6.77;;
3379;SDS011;1703;51.964;7.642;2023-06-05T08:45:56;14.93;;;7.07;;
3379;SDS011;1703;51.964;7.642;2023-06-05T08:48:23;10.23;;;6.37;;
3379;SDS011;1703;51.964;7.642;2023-06-05T08:50:51;8.43;;;6.00;;
3379;SDS011;1703;51.964;7.642;2023-06-05T08:53:20;10.60;;;6.80;;
3379;SDS011;1703;51.964;7.642;2023-06-05T08:55:51;10.27;;;6.57;;
3379;SDS011;1703;51.964;7.642;2023-06-05T08:58:21;8.90;;;5.83;;
3379;SDS011;1703;51.964;7.642;2023-06-05T09:00:48;9.93;;;7.03;;
3379;SDS011;1703;51.964;7.642;2023-06-05T09:03:17;9.90;;;7.07;;
3379;SDS011;1703;51.964;7.642;2023-06-05T09:05:46;13.63;;;6.50;;
3379;SDS011;1703;51.964;7.642;2023-06-05T09:08:13;7.23;;;6.17;;
3379;SDS011;1703;51.964;7.642;2023-06-05T09:10:41;10.00;;;6.77;;
3379;SDS011;1703;51.964;7.642;2023-06-05T09:13:09;14.93;;;6.60;;
3379;SDS011;1703;51.964;7.642;2023-06-05T09:15:36;8.73;;;6.80;;
3379;SDS011;1703;51.964;7.642;2023-06-05T09:18:03;13.13;;;6.80;;
3379;SDS011;1703;51.964;7.642;2023-06-05T09:20:35;7.73;;;6.53;;
3379;SDS011;1703;51.964;7.642;2023-06-05T09:23:03;17.43;;;6.93;;
3379;SDS011;1703;51.964;7.642;2023-06-05T09:25:44;19.23;;;7.23;;
3379;SDS011;1703;51.964;7.642;2023-06-05T09:28:13;12.10;;;6.20;;
3379;SDS011;1703;51.964;7.642;2023-06-05T09:30:53;6.53;;;5.80;;
3379;SDS011;1703;51.964;7.642;2023-06-05T09:33:21;10.40;;;6.97;;
3379;SDS011;1703;51.964;7.642;2023-06-05T09:36:02;7.73;;;6.63;;
3379;SDS011;1703;51.964;7.642;2023-06-05T09:38:32;13.93;;;5.57;;
3379;SDS011;1703;51.964;7.642;2023-06-05T09:41:03;13.90;;;6.50;;
3379;SDS011;1703;51.964;7.642;2023-06-05T09:43:31;10.37;;;5.90;;
3379;SDS011;1703;51.964;7.642;2023-06-05T09:45:58;12.73;;;5.90;;
3379;SDS011;1703;51.964;7.642;2023-06-05T09:48:25;9.27;;;5.97;;
3379;SDS011;1703;51.964;7.642;2023-06-05T09:50:52;8.20;;;5.77;;
3379;SDS011;1703;51.964;7.642;2023-06-05T09:53:21;10.17;;;7.23;;
3379;SDS011;1703;51.964;7.642;2023-06-05T09:55:48;8.70;;;6.17;;
3379;SDS011;1703;51.964;7.642;2023-06-05T09:58:15;11.80;;;4.83;;
3379;SDS011;1703;51.964;7.642;2023-06-05T10:00:43;14.97;;;5.40;;
3379;SDS011;1703;51.964;7.642;2023-06-05T10:03:13;8.53;;;5.37;;
3379;SDS011;1703;51.964;7.642;2023-06-05T10:05:42;7.33;;;4.30;;
3379;SDS011;1703;51.964;7.642;2023-06-05T10:08:11;7.23;;;5.60;;
3379;SDS011;1703;51.964;7.642;2023-06-05T10:10:40;10.07;;;5.60;;
3379;SDS011;1703;51.964;7.642;2023-06-05T10:13:08;10.67;;;6.30;;
3379;SDS011;1703;51.964;7.642;2023-06-05T10:15:36;12.53;;;5.90;;
3379;SDS011;1703;51.964;7.642;2023-06-05T10:18:06;11.00;;;4.70;;
3379;SDS011;1703;51.964;7.642;2023-06-05T10:20:33;14.53;;;5.63;;
3379;SDS011;1703;51.964;7.642;2023-06-05T10:23:01;9.33;;;4.60;;
3379;SDS011;1703;51.964;7.642;2023-06-05T10:25:28;9.67;;;5.23;;
3379;SDS011;1703;51.964;7.642;2023-06-05T10:28:05;8.27;;;4.57;;
3379;SDS011;1703;51.964;7.642;2023-06-05T10:30:58;6.53;;;4.37;;
3379;SDS011;1703;51.964;7.642;2023-06-05T10:33:49;8.37;;;5.27;;
3379;SDS011;1703;51.964;7.642;2023-06-05T10:40:11;9.93;;;5.00;;
3379;SDS011;1703;51.964;7.642;2023-06-05T10:42:41;6.97;;;4.57;;
3379;SDS011;1703;51.964;7.642;2023-06-05T10:45:10;4.50;;;3.90;;
3379;SDS011;1703;51.964;7.642;2023-06-05T10:50:22;8.40;;;4.43;;
3379;SDS011;1703;51.964;7.642;2023-06-05T10:52:52;5.93;;;4.60;;
3379;SDS011;1703;51.964;7.642;2023-06-05T10:55:20;9.70;;;4.90;;
3379;SDS011;1703;51.964;7.642;2023-06-05T10:58:04;8.17;;;4.93;;
3379;SDS011;1703;51.964;7.642;2023-06-05T11:00:35;5.93;;;4.60;;
3379;SDS011;1703;51.964;7.642;2023-06-05T11:03:04;9.00;;;4.63;;
3379;SDS011;1703;51.964;7.642;2023-06-05T11:05:32;7.17;;;5.30;;
3379;SDS011;1703;51.964;7.642;2023-06-05T11:08:09;7.67;;;5.53;;
3379;SDS011;1703;51.964;7.642;2023-06-05T11:10:41;9.57;;;4.40;;
3379;SDS011;1703;51.964;7.642;2023-06-05T11:16:31;7.20;;;4.20;;
3379;SDS011;1703;51.964;7.642;2023-06-05T11:22:02;7.30;;;4.47;;
3379;SDS011;1703;51.964;7.642;2023-06-05T11:24:30;6.60;;;4.27;;
3379;SDS011;1703;51.964;7.642;2023-06-05T11:26:59;8.57;;;4.20;;
3379;SDS011;1703;51.964;7.642;2023-06-05T11:29:25;12.03;;;4.97;;
3379;SDS011;1703;51.964;7.642;2023-06-05T11:31:55;8.70;;;4.60;;
3379;SDS011;1703;51.964;7.642;2023-06-05T11:34:22;7.47;;;3.43;;
3379;SDS011;1703;51.964;7.642;2023-06-05T11:36:49;5.10;;;4.00;;
3379;SDS011;1703;51.964;7.642;2023-06-05T11:39:16;4.80;;;3.70;;
3379;SDS011;1703;51.964;7.642;2023-06-05T11:41:48;7.57;;;5.20;;
3379;SDS011;1703;51.964;7.642;2023-06-05T11:44:29;5.70;;;3.40;;
3379;SDS011;1703;51.964;7.642;2023-06-05T11:46:58;6.83;;;4.00;;
3379;SDS011;1703;51.964;7.642;2023-06-05T11:49:26;3.40;;;3.13;;
3379;SDS011;1703;51.964;7.642;2023-06-05T11:51:54;7.43;;;3.90;;
3379;SDS011;1703;51.964;7.642;2023-06-05T11:54:25;6.53;;;3.63;;
3379;SDS011;1703;51.964;7.642;2023-06-05T11:56:59;5.13;;;3.50;;
3379;SDS011;1703;51.964;7.642;2023-06-05T11:59:33;3.73;;;2.70;;
3379;SDS011;1703;51.964;7.642;2023-06-05T12:02:02;3.47;;;2.50;;
3379;SDS011;1703;51.964;7.642;2023-06-05T12:04:29;6.50;;;3.00;;
3379;SDS011;1703;51.964;7.642;2023-06-05T12:06:57;5.07;;;3.00;;
3379;SDS011;1703;51.964;7.642;2023-06-05T12:09:24;6.07;;;3.03;;
3379;SDS011;1703;51.964;7.642;2023-06-05T12:11:51;3.90;;;2.57;;
3379;SDS011;1703;51.964;7.642;2023-06-05T12:14:28;4.73;;;3.00;;
3379;SDS011;1703;51.964;7.642;2023-06-05T12:16:56;3.50;;;3.00;;
3379;SDS011;1703;51.964;7.642;2023-06-05T12:19:24;5.10;;;2.87;;
3379;SDS011;1703;51.964;7.642;2023-06-05T12:21:51;5.13;;;2.70;;
3379;SDS011;1703;51.964;7.642;2023-06-05T12:24:28;5.13;;;2.40;;
3379;SDS011;1703;51.964;7.642;2023-06-05T12:26:56;2.90;;;2.50;;
3379;SDS011;1703;51.964;7.642;2023-06-05T12:29:25;3.53;;;3.20;;
3379;SDS011;1703;51.964;7.642;2023-06-05T12:31:55;5.37;;;2.47;;
3379;SDS011;1703;51.964;7.642;2023-06-05T12:37:20;3.57;;;2.63;;
3379;SDS011;1703;51.964;7.642;2023-06-05T12:39:48;5.10;;;2.47;;
3379;SDS011;1703;51.964;7.642;2023-06-05T12:42:14;3.37;;;3.00;;
3379;SDS011;1703;51.964;7.642;2023-06-05T12:44:41;5.93;;;3.00;;
3379;SDS011;1703;51.964;7.642;2023-06-05T12:47:08;3.80;;;2.97;;
3379;SDS011;1703;51.964;7.642;2023-06-05T12:49:35;4.33;;;3.43;;
3379;SDS011;1703;51.964;7.642;2023-06-05T12:52:03;4.47;;;2.60;;
3379;SDS011;1703;51.964;7.642;2023-06-05T12:54:33;3.97;;;2.63;;
3379;SDS011;1703;51.964;7.642;2023-06-05T12:57:02;3.33;;;2.33;;
3379;SDS011;1703;51.964;7.642;2023-06-05T12:59:28;6.37;;;2.73;;
3379;SDS011;1703;51.964;7.642;2023-06-05T13:01:55;4.53;;;2.20;;
3379;SDS011;1703;51.964;7.642;2023-06-05T13:04:22;3.57;;;2.67;;
3379;SDS011;1703;51.964;7.642;2023-06-05T13:06:49;4.50;;;2.47;;
3379;SDS011;1703;51.964;7.642;2023-06-05T13:09:17;4.90;;;2.00;;
3379;SDS011;1703;51.964;7.642;2023-06-05T13:11:45;4.80;;;2.57;;
3379;SDS011;1703;51.964;7.642;2023-06-05T13:14:11;2.53;;;2.37;;
3379;SDS011;1703;51.964;7.642;2023-06-05T13:16:38;4.40;;;2.30;;
3379;SDS011;1703;51.964;7.642;2023-06-05T13:19:05;3.33;;;1.80;;
3379;SDS011;1703;51.964;7.642;2023-06-05T13:21:32;12.83;;;3.10;;
3379;SDS011;1703;51.964;7.642;2023-06-05T13:24:00;7.90;;;3.40;;
3379;SDS011;1703;51.964;7.642;2023-06-05T13:26:28;6.67;;;2.70;;
3379;SDS011;1703;51.964;7.642;2023-06-05T13:28:54;4.40;;;2.17;;
3379;SDS011;1703;51.964;7.642;2023-06-05T13:31:21;6.83;;;2.90;;
3379;SDS011;1703;51.964;7.642;2023-06-05T13:33:49;4.13;;;3.10;;
3379;SDS011;1703;51.964;7.642;2023-06-05T13:36:16;4.50;;;2.17;;
3379;SDS011;1703;51.964;7.642;2023-06-05T13:38:43;3.50;;;2.53;;
3379;SDS011;1703;51.964;7.642;2023-06-05T13:41:12;7.33;;;2.93;;
3379;SDS011;1703;51.964;7.642;2023-06-05T13:43:40;3.97;;;2.30;;
3379;SDS011;1703;51.964;7.642;2023-06-05T13:46:07;3.23;;;2.50;;
3379;SDS011;1703;51.964;7.642;2023-06-05T13:48:33;6.40;;;2.60;;
3379;SDS011;1703;51.964;7.642;2023-06-05T13:51:02;2.95;;;2.65;;
3379;SDS011;1703;51.964;7.642;2023-06-05T13:53:29;2.40;;;2.20;;
3379;SDS011;1703;51.964;7.642;2023-06-05T13:55:59;4.00;;;2.38;;
3379;SDS011;1703;51.964;7.642;2023-06-05T13:58:26;3.35;;;3.08;;
3379;SDS011;1703;51.964;7.642;2023-06-05T14:00:54;5.38;;;2.45;;
3379;SDS011;1703;51.964;7.642;2023-06-05T14:03:22;2.40;;;2.00;;
3379;SDS011;1703;51.964;7.642;2023-06-05T14:05:49;2.53;;;2.03;;
3379;SDS011;1703;51.964;7.642;2023-06-05T14:08:16;2.78;;;2.47;;
3379;SDS011;1703;51.964;7.642;2023-06-05T14:10:44;8.25;;;2.92;;
3379;SDS011;1703;51.964;7.642;2023-06-05T14:13:13;5.43;;;2.78;;
3379;SDS011;1703;51.964;7.642;2023-06-05T14:15:44;3.97;;;2.40;;
3379;SDS011;1703;51.964;7.642;2023-06-05T14:18:12;9.33;;;3.10;;
3379;SDS011;1703;51.964;7.642;2023-06-05T14:20:39;3.00;;;2.50;;
3379;SDS011;1703;51.964;7.642;2023-06-05T14:23:06;3.17;;;2.50;;
3379;SDS011;1703;51.964;7.642;2023-06-05T14:25:33;7.43;;;3.03;;
3379;SDS011;1703;51.964;7.642;2023-06-05T14:28:00;4.80;;;2.10;;
3379;SDS011;1703;51.964;7.642;2023-06-05T14:30:27;3.30;;;2.97;;
3379;SDS011;1703;51.964;7.642;2023-06-05T14:32:55;4.27;;;2.83;;
3379;SDS011;1703;51.964;7.642;2023-06-05T14:35:23;3.67;;;2.37;;
3379;SDS011;1703;51.964;7.642;2023-06-05T14:37:50;3.37;;;2.03;;
3379;SDS011;1703;51.964;7.642;2023-06-05T14:40:17;2.53;;;2.33;;
3379;SDS011;1703;51.964;7.642;2023-06-05T14:42:44;4.03;;;2.37;;
3379;SDS011;1703;51.964;7.642;2023-06-05T14:45:11;3.27;;;2.10;;
3379;SDS011;1703;51.964;7.642;2023-06-05T14:47:37;2.50;;;2.30;;
3379;SDS011;1703;51.964;7.642;2023-06-05T14:50:05;2.97;;;2.67;;
3379;SDS011;1703;51.964;7.642;2023-06-05T14:52:33;6.70;;;2.50;;
3379;SDS011;1703;51.964;7.642;2023-06-05T14:55:01;2.70;;;2.47;;
3379;SDS011;1703;51.964;7.642;2023-06-05T14:57:28;2.70;;;1.90;;
3379;SDS011;1703;51.964;7.642;2023-06-05T14:59:54;3.17;;;2.10;;
3379;SDS011;1703;51.964;7.642;2023-06-05T15:02:21;3.97;;;3.20;;
3379;SDS011;1703;51.964;7.642;2023-06-05T15:04:48;9.90;;;5.57;;
3379;SDS011;1703;51.964;7.642;2023-06-05T15:07:17;2.60;;;2.27;;
3379;SDS011;1703;51.964;7.642;2023-06-05T15:09:47;4.90;;;2.37;;
3379;SDS011;1703;51.964;7.642;2023-06-05T15:12:14;3.30;;;2.17;;
3379;SDS011;1703;51.964;7.642;2023-06-05T15:14:41;3.00;;;2.47;;
3379;SDS011;1703;51.964;7.642;2023-06-05T15:17:08;3.53;;;2.27;;
3379;SDS011;1703;51.964;7.642;2023-06-05T15:19:35;4.43;;;2.67;;
3379;SDS011;1703;51.964;7.642;2023-06-05T15:22:02;8.23;;;2.33;;
3379;SDS011;1703;51.964;7.642;2023-06-05T15:24:29;4.63;;;1.87;;
3379;SDS011;1703;51.964;7.642;2023-06-05T15:26:57;3.33;;;2.77;;
3379;SDS011;1703;51.964;7.642;2023-06-05T15:29:24;2.17;;;2.00;;
3379;SDS011;1703;51.964;7.642;2023-06-05T15:31:51;3.83;;;2.83;;
3379;SDS011;1703;51.964;7.642;2023-06-05T15:34:18;2.93;;;2.60;;